Terminal Aerodrome Forecast
Issued by NWS

Home | Current Version | Previous Version | Text Only | Print | Product List | Glossary On
Versions: 1 2 3 4 5 6 7 8 9 10 11 12 13 14 15 16 17 18 19 20 21 22 23 24 25 26 27 28 29 30 31 32
000
FTAK31 PAFA 242339
TAFAQT
TAF
PAQT 242339Z 2500/2524 23007KT 6SM -SHSN BR OVC007
     FM250500 23008KT 4SM -SN BR BKN007
     FM251500 10006KT 6SM BR BKN007=

USA.gov is the U.S. government's official web portal to all federal, state and local government web resources and services.